createdAt,value
2023-03-06T00:00:48.685Z,3.90
2023-03-06T00:03:17.071Z,3.36
2023-03-06T00:05:44.813Z,3.01
2023-03-06T00:08:13.715Z,3.14
2023-03-06T00:10:41.356Z,3.47
2023-03-06T00:13:12.428Z,3.64
2023-03-06T00:15:39.982Z,3.87
2023-03-06T00:18:08.022Z,3.74
2023-03-06T00:20:35.965Z,3.66
2023-03-06T00:23:03.746Z,3.62
2023-03-06T00:25:32.599Z,3.54
2023-03-06T00:28:00.119Z,3.49
2023-03-06T00:30:27.681Z,2.68
2023-03-06T00:32:55.408Z,3.31
2023-03-06T00:35:23.114Z,3.69
2023-03-06T00:37:50.848Z,3.60
2023-03-06T00:40:21.089Z,3.79
2023-03-06T00:42:49.973Z,3.91
2023-03-06T00:45:17.464Z,4.01
2023-03-06T00:47:45.066Z,4.12
2023-03-06T00:50:12.675Z,3.80
2023-03-06T00:52:41.829Z,3.69
2023-03-06T00:55:10.377Z,3.71
2023-03-06T00:57:38.042Z,3.90
2023-03-06T01:00:08.860Z,3.78
2023-03-06T01:02:36.361Z,3.80
2023-03-06T01:05:03.949Z,3.76
2023-03-06T01:07:33.917Z,3.97
2023-03-06T01:10:01.516Z,4.01
2023-03-06T01:12:28.996Z,4.16
2023-03-06T01:14:56.522Z,3.99
2023-03-06T01:17:25.380Z,4.09
2023-03-06T01:19:52.872Z,3.94
2023-03-06T01:22:20.353Z,3.87
2023-03-06T01:24:47.863Z,4.37
2023-03-06T01:27:15.361Z,4.59
2023-03-06T01:29:42.831Z,4.63
2023-03-06T01:32:10.345Z,4.64
2023-03-06T01:34:39.167Z,4.69
2023-03-06T01:37:06.693Z,4.64
2023-03-06T01:39:34.185Z,3.98
2023-03-06T01:42:01.661Z,4.03
2023-03-06T01:44:29.245Z,4.20
2023-03-06T01:46:56.790Z,4.15
2023-03-06T01:49:26.630Z,4.21
2023-03-06T01:51:58.751Z,3.91
2023-03-06T01:54:29.277Z,3.82
2023-03-06T01:57:01.328Z,3.51
2023-03-06T01:59:30.003Z,3.84
2023-03-06T02:02:01.610Z,3.97
2023-03-06T02:04:29.987Z,3.97
2023-03-06T02:07:00.391Z,4.17
2023-03-06T02:09:30.921Z,4.25
2023-03-06T02:11:58.579Z,4.31
2023-03-06T02:14:26.512Z,4.46
2023-03-06T02:16:54.138Z,4.44
2023-03-06T02:19:36.701Z,4.15
2023-03-06T02:22:05.617Z,4.29
2023-03-06T02:24:40.116Z,4.55
2023-03-06T02:27:10.940Z,4.67
2023-03-06T02:29:38.427Z,4.56
2023-03-06T02:32:06.682Z,4.38
2023-03-06T02:34:49.992Z,3.84
2023-03-06T02:37:17.598Z,3.53
2023-03-06T02:39:49.020Z,3.44
2023-03-06T02:42:24.301Z,3.61
2023-03-06T02:44:53.505Z,3.83
2023-03-06T02:47:21.306Z,3.91
2023-03-06T02:49:48.852Z,3.85
2023-03-06T02:52:16.318Z,4.09
2023-03-06T02:54:43.797Z,3.54
2023-03-06T02:57:11.470Z,3.56
2023-03-06T02:59:40.393Z,3.81
2023-03-06T03:02:07.895Z,3.75
2023-03-06T03:04:35.551Z,3.57
2023-03-06T03:07:03.029Z,3.75
2023-03-06T03:09:36.628Z,3.83
2023-03-06T03:12:06.537Z,3.76
2023-03-06T03:14:34.140Z,3.88
2023-03-06T03:17:03.382Z,3.53
2023-03-06T03:19:30.927Z,3.48
2023-03-06T03:21:58.409Z,3.20
2023-03-06T03:24:26.282Z,3.44
2023-03-06T03:26:53.810Z,3.63
2023-03-06T03:29:21.806Z,3.91
2023-03-06T03:31:49.340Z,4.11
2023-03-06T03:34:19.672Z,4.10
2023-03-06T03:36:47.383Z,4.04
2023-03-06T03:39:15.227Z,3.89
2023-03-06T03:41:42.814Z,3.51
2023-03-06T03:44:10.688Z,3.78
2023-03-06T03:46:38.728Z,3.79
2023-03-06T03:49:07.040Z,3.84
2023-03-06T03:51:35.843Z,3.77
2023-03-06T03:54:03.332Z,3.82
2023-03-06T03:56:30.798Z,3.50
2023-03-06T03:58:58.274Z,3.46
2023-03-06T04:01:25.820Z,3.46
2023-03-06T04:03:53.288Z,3.23
2023-03-06T04:06:20.813Z,3.42
2023-03-06T04:08:49.616Z,2.62
2023-03-06T04:11:17.314Z,2.47
2023-03-06T04:13:44.824Z,2.36
2023-03-06T04:16:12.325Z,2.13
2023-03-06T04:18:40.239Z,2.28
2023-03-06T04:21:07.974Z,2.31
2023-03-06T04:23:35.748Z,2.43
2023-03-06T04:26:05.015Z,2.25
2023-03-06T04:28:32.499Z,2.50
2023-03-06T04:31:00.165Z,2.36
2023-03-06T04:33:27.684Z,2.42
2023-03-06T04:35:55.205Z,2.61
2023-03-06T04:38:22.691Z,2.33
2023-03-06T04:40:50.564Z,2.61
2023-03-06T04:43:19.733Z,2.48
2023-03-06T04:45:47.227Z,2.57
2023-03-06T04:48:15.775Z,2.81
2023-03-06T04:50:43.260Z,3.20
2023-03-06T04:53:10.981Z,3.36
2023-03-06T04:55:38.513Z,3.29
2023-03-06T04:58:06.020Z,3.15
2023-03-06T05:00:34.899Z,3.28
2023-03-06T05:03:02.720Z,3.28
2023-03-06T05:05:30.473Z,3.46
2023-03-06T05:07:58.314Z,3.31
2023-03-06T05:10:25.965Z,3.05
2023-03-06T05:12:53.458Z,3.20
2023-03-06T05:15:21.284Z,3.18
2023-03-06T05:17:50.372Z,3.73
2023-03-06T05:20:18.292Z,3.61
2023-03-06T05:22:46.095Z,3.23
2023-03-06T05:25:13.639Z,3.16
2023-03-06T05:27:41.414Z,2.93
2023-03-06T05:30:12.379Z,3.34
2023-03-06T05:32:39.926Z,3.27
2023-03-06T05:35:09.634Z,2.86
2023-03-06T05:37:37.130Z,2.98
2023-03-06T05:40:06.750Z,2.84
2023-03-06T05:42:34.214Z,3.22
2023-03-06T05:45:02.545Z,3.36
2023-03-06T05:47:30.020Z,3.62
2023-03-06T05:49:57.564Z,3.34
2023-03-06T05:52:26.543Z,3.14
2023-03-06T05:54:55.546Z,3.35
2023-03-06T05:57:24.042Z,3.27
2023-03-06T05:59:51.913Z,3.27
2023-03-06T06:02:20.257Z,3.54
2023-03-06T06:04:47.904Z,3.53
2023-03-06T06:07:17.117Z,3.66
2023-03-06T06:09:46.329Z,3.55
2023-03-06T06:12:14.790Z,3.53
2023-03-06T06:14:42.334Z,3.33
2023-03-06T06:17:12.398Z,2.94
2023-03-06T06:19:39.963Z,3.53
2023-03-06T06:22:07.434Z,3.38
2023-03-06T06:24:35.189Z,3.09
2023-03-06T06:27:04.596Z,3.23
2023-03-06T06:29:32.307Z,3.45
2023-03-06T06:32:00.793Z,3.57
2023-03-06T06:34:28.996Z,3.52
2023-03-06T06:36:56.479Z,3.70
2023-03-06T06:39:25.104Z,3.62
2023-03-06T06:42:05.903Z,3.41
2023-03-06T06:44:41.551Z,3.53
2023-03-06T06:47:25.822Z,3.68
2023-03-06T06:49:54.902Z,3.44
2023-03-06T06:52:22.538Z,3.69
2023-03-06T06:54:49.969Z,3.48
2023-03-06T06:57:17.918Z,3.87
2023-03-06T06:59:46.709Z,3.84
2023-03-06T07:02:15.833Z,3.94
2023-03-06T07:05:00.231Z,4.00
2023-03-06T07:07:30.425Z,3.99
2023-03-06T07:09:57.929Z,3.72
2023-03-06T07:12:25.398Z,3.59
2023-03-06T07:14:54.156Z,3.56
2023-03-06T07:17:21.601Z,3.53
2023-03-06T07:19:49.080Z,3.55
2023-03-06T07:22:16.551Z,3.53
2023-03-06T07:24:44.009Z,3.42
2023-03-06T07:27:11.485Z,3.30
2023-03-06T07:29:38.982Z,3.28
2023-03-06T07:32:08.079Z,3.61
2023-03-06T07:34:35.654Z,3.57
2023-03-06T07:37:03.118Z,3.83
2023-03-06T07:39:30.668Z,4.09
2023-03-06T07:41:58.767Z,4.26
2023-03-06T07:44:26.247Z,4.26
2023-03-06T07:46:53.858Z,4.72
2023-03-06T07:49:22.894Z,4.70
2023-03-06T07:51:50.351Z,4.76
2023-03-06T07:54:17.816Z,4.55
2023-03-06T07:56:45.321Z,4.92
2023-03-06T07:59:12.853Z,4.88
2023-03-06T08:01:40.375Z,4.70
2023-03-06T08:04:07.894Z,5.14
2023-03-06T08:06:36.968Z,5.02
2023-03-06T08:09:04.890Z,4.57
2023-03-06T08:11:33.918Z,4.57
2023-03-06T08:14:01.462Z,4.69
2023-03-06T08:16:30.334Z,5.11
2023-03-06T08:18:58.755Z,5.47
2023-03-06T08:21:27.892Z,5.52
2023-03-06T08:23:57.076Z,5.14
2023-03-06T08:26:26.520Z,5.58
2023-03-06T08:28:54.778Z,5.48
2023-03-06T08:31:27.487Z,5.14
2023-03-06T08:33:55.619Z,5.20
2023-03-06T08:36:23.826Z,5.43
2023-03-06T08:38:51.842Z,5.37
2023-03-06T08:41:20.891Z,5.44
2023-03-06T08:43:48.750Z,5.73
2023-03-06T08:46:16.284Z,6.22
2023-03-06T08:48:43.754Z,6.38
2023-03-06T08:51:11.961Z,6.20
2023-03-06T08:53:43.522Z,6.14
2023-03-06T08:56:17.274Z,5.89
2023-03-06T08:58:46.769Z,6.50
2023-03-06T09:01:15.662Z,6.41
2023-03-06T09:03:43.264Z,6.32
2023-03-06T09:06:10.764Z,6.18
2023-03-06T09:08:38.320Z,6.42
2023-03-06T09:11:05.955Z,6.16
2023-03-06T09:13:33.400Z,6.15
2023-03-06T09:16:02.266Z,6.18
2023-03-06T09:18:30.148Z,5.96
2023-03-06T09:20:57.716Z,6.39
2023-03-06T09:23:25.213Z,6.14
2023-03-06T09:25:53.678Z,6.08
2023-03-06T09:28:22.006Z,6.15
2023-03-06T09:30:49.569Z,5.56
2023-03-06T09:33:20.231Z,5.65
2023-03-06T09:35:50.824Z,5.22
2023-03-06T09:38:18.472Z,5.16
2023-03-06T09:41:03.937Z,5.47
2023-03-06T09:43:35.406Z,5.52
2023-03-06T09:46:08.197Z,5.48
2023-03-06T09:48:43.790Z,6.08
2023-03-06T09:51:15.996Z,6.54
2023-03-06T09:53:55.559Z,6.50
2023-03-06T09:56:30.002Z,6.99
2023-03-06T09:59:04.003Z,7.37
2023-03-06T10:01:35.494Z,7.43
2023-03-06T10:04:12.333Z,7.73
2023-03-06T10:06:48.162Z,7.48
2023-03-06T10:09:19.727Z,7.48
2023-03-06T10:11:52.496Z,7.66
2023-03-06T10:14:27.495Z,7.56
2023-03-06T10:16:56.065Z,7.48
2023-03-06T10:19:32.626Z,7.53
2023-03-06T10:22:04.232Z,7.58
2023-03-06T10:24:49.039Z,7.04
2023-03-06T10:27:23.492Z,6.51
2023-03-06T10:30:03.790Z,6.76
2023-03-06T10:32:48.690Z,7.60
2023-03-06T10:35:20.110Z,7.79
2023-03-06T10:37:48.006Z,7.98
2023-03-06T10:40:20.490Z,7.37
2023-03-06T10:42:48.254Z,7.23
2023-03-06T10:45:18.228Z,7.82
2023-03-06T10:47:46.464Z,7.07
2023-03-06T10:50:28.880Z,6.81
2023-03-06T10:53:01.445Z,7.58
2023-03-06T10:55:30.727Z,6.33
2023-03-06T10:57:58.353Z,6.20
2023-03-06T11:00:33.473Z,7.04
2023-03-06T11:03:16.973Z,7.47
2023-03-06T11:06:02.133Z,6.83
2023-03-06T11:08:30.208Z,6.51
2023-03-06T11:11:00.680Z,6.07
2023-03-06T11:13:30.635Z,5.89
2023-03-06T11:16:04.148Z,6.67
2023-03-06T11:18:37.119Z,6.08
2023-03-06T11:21:24.188Z,5.77
2023-03-06T11:23:52.890Z,5.30
2023-03-06T11:26:42.222Z,5.65
2023-03-06T11:29:27.322Z,5.96
2023-03-06T11:31:59.377Z,5.70
2023-03-06T11:34:38.770Z,5.58
2023-03-06T11:37:12.561Z,6.31
2023-03-06T11:39:44.505Z,6.71
2023-03-06T11:42:18.306Z,6.85
2023-03-06T11:44:55.342Z,6.79
2023-03-06T11:47:26.830Z,5.89
2023-03-06T11:50:07.375Z,6.18
2023-03-06T11:52:44.895Z,6.39
2023-03-06T11:55:16.181Z,7.19
2023-03-06T11:57:51.269Z,7.36
2023-03-06T12:00:29.923Z,7.52
2023-03-06T12:03:18.553Z,7.33
2023-03-06T12:05:49.869Z,7.31
2023-03-06T12:08:38.780Z,7.63
2023-03-06T12:14:04.434Z,7.69
2023-03-06T12:16:40.641Z,6.91
2023-03-06T12:19:24.479Z,5.84
2023-03-06T12:22:03.509Z,6.15
2023-03-06T12:24:47.760Z,6.12
2023-03-06T12:27:23.958Z,5.78
2023-03-06T12:30:05.037Z,5.54
2023-03-06T12:32:44.955Z,5.45
2023-03-06T12:35:44.706Z,5.31
2023-03-06T12:38:34.994Z,5.50
2023-03-06T12:41:15.304Z,5.62
2023-03-06T12:43:57.466Z,6.28
2023-03-06T12:46:26.753Z,5.59
2023-03-06T12:49:03.128Z,5.24
2023-03-06T12:51:31.773Z,4.90
2023-03-06T12:54:01.282Z,3.92
2023-03-06T12:56:33.936Z,3.75
2023-03-06T12:59:02.548Z,3.76
2023-03-06T13:01:55.617Z,3.64
2023-03-06T13:04:46.269Z,3.27
2023-03-06T13:07:34.878Z,3.25
2023-03-06T13:10:16.376Z,3.77
2023-03-06T13:12:56.857Z,4.66
2023-03-06T13:15:37.477Z,5.06
2023-03-06T13:18:47.230Z,5.09
2023-03-06T13:21:47.848Z,5.21
2023-03-06T13:24:18.580Z,4.48
2023-03-06T13:27:07.893Z,4.46
2023-03-06T13:30:28.296Z,4.33
2023-03-06T13:32:57.271Z,4.34
2023-03-06T13:35:57.346Z,4.73
2023-03-06T13:38:34.053Z,5.15
2023-03-06T13:41:27.258Z,5.17
2023-03-06T13:43:56.561Z,4.80
2023-03-06T13:46:28.013Z,4.95
2023-03-06T13:49:24.101Z,4.66
2023-03-06T13:52:07.216Z,4.49
2023-03-06T13:54:48.727Z,4.46
2023-03-06T13:57:33.729Z,4.59
2023-03-06T14:00:45.537Z,4.74
2023-03-06T14:03:47.598Z,5.24
2023-03-06T14:07:05.637Z,5.19
2023-03-06T14:09:38.210Z,5.86
2023-03-06T14:12:10.423Z,5.19
2023-03-06T14:14:43.217Z,4.82
2023-03-06T14:17:24.613Z,5.12
2023-03-06T14:19:52.405Z,5.26
2023-03-06T14:22:23.269Z,5.13
2023-03-06T14:25:02.176Z,4.50
2023-03-06T14:27:42.145Z,4.63
2023-03-06T14:30:20.787Z,5.07
2023-03-06T14:32:49.867Z,5.00
2023-03-06T14:35:23.806Z,5.39
2023-03-06T14:37:54.058Z,5.23
2023-03-06T14:40:30.071Z,5.72
2023-03-06T14:43:16.534Z,5.00
2023-03-06T14:45:54.998Z,5.20
2023-03-06T14:48:23.413Z,5.19
2023-03-06T14:50:53.481Z,4.97
2023-03-06T14:53:24.577Z,4.69
2023-03-06T14:55:55.898Z,4.45
2023-03-06T14:58:32.664Z,4.59
2023-03-06T15:01:03.981Z,4.84
2023-03-06T15:03:41.543Z,5.40
2023-03-06T15:06:12.470Z,4.89
2023-03-06T15:08:41.418Z,4.52
2023-03-06T15:11:10.311Z,4.65
2023-03-06T15:13:37.801Z,5.55
2023-03-06T15:16:07.949Z,5.42
2023-03-06T15:18:38.894Z,5.12
2023-03-06T15:21:09.432Z,5.67
2023-03-06T15:23:38.560Z,5.33
2023-03-06T15:26:23.563Z,5.51
2023-03-06T15:29:12.651Z,5.50
2023-03-06T15:31:41.942Z,5.64
2023-03-06T15:34:23.457Z,5.95
2023-03-06T15:36:54.928Z,5.99
2023-03-06T15:39:37.192Z,6.28
2023-03-06T15:42:18.093Z,5.48
2023-03-06T15:44:49.646Z,5.69
2023-03-06T15:47:17.562Z,5.11
2023-03-06T15:49:45.388Z,4.79
2023-03-06T15:52:12.933Z,5.56
2023-03-06T15:54:40.400Z,4.88
2023-03-06T15:57:15.988Z,4.76
2023-03-06T15:59:45.311Z,5.15
2023-03-06T16:02:17.003Z,5.01
2023-03-06T16:04:45.031Z,5.42
2023-03-06T16:07:12.631Z,5.37
2023-03-06T16:09:41.174Z,5.54
2023-03-06T16:12:15.603Z,5.30
2023-03-06T16:14:43.186Z,5.22
2023-03-06T16:17:12.271Z,4.86
2023-03-06T16:19:40.328Z,4.36
2023-03-06T16:22:07.811Z,4.23
2023-03-06T16:24:35.445Z,4.46
2023-03-06T16:27:03.683Z,4.10
2023-03-06T16:29:32.610Z,4.44
2023-03-06T16:32:01.600Z,4.19
2023-03-06T16:34:29.194Z,4.12
2023-03-06T16:36:56.781Z,3.97
2023-03-06T16:39:25.293Z,4.10
2023-03-06T16:41:52.823Z,4.01
2023-03-06T16:44:20.946Z,4.06
2023-03-06T16:46:50.924Z,4.37
2023-03-06T16:49:20.189Z,3.99
2023-03-06T16:51:47.993Z,3.88
2023-03-06T16:54:15.514Z,3.86
2023-03-06T16:56:43.167Z,3.70
2023-03-06T16:59:11.255Z,3.70
2023-03-06T17:01:40.633Z,3.73
2023-03-06T17:04:09.551Z,3.83
2023-03-06T17:06:37.059Z,3.32
2023-03-06T17:09:04.694Z,3.10
2023-03-06T17:11:32.235Z,3.15
2023-03-06T17:13:59.802Z,2.94
2023-03-06T17:16:27.283Z,3.05
2023-03-06T17:18:57.999Z,3.08
2023-03-06T17:21:26.960Z,3.04
2023-03-06T17:23:54.449Z,2.91
2023-03-06T17:26:21.934Z,3.05
2023-03-06T17:28:49.415Z,2.73
2023-03-06T17:31:19.254Z,2.78
2023-03-06T17:33:46.986Z,2.53
2023-03-06T17:36:15.414Z,2.67
2023-03-06T17:38:44.698Z,2.69
2023-03-06T17:41:13.406Z,2.48
2023-03-06T17:43:41.721Z,2.50
2023-03-06T17:46:11.308Z,2.61
2023-03-06T17:48:38.900Z,2.67
2023-03-06T17:51:07.453Z,3.11
2023-03-06T17:53:35.122Z,3.05
2023-03-06T17:56:05.449Z,3.61
2023-03-06T17:58:33.156Z,4.10
2023-03-06T18:01:00.730Z,3.88
2023-03-06T18:03:28.196Z,3.22
2023-03-06T18:06:00.408Z,3.27
2023-03-06T18:08:27.889Z,3.32
2023-03-06T18:10:59.844Z,3.47
2023-03-06T18:13:28.677Z,3.70
2023-03-06T18:15:56.372Z,3.81
2023-03-06T18:18:24.280Z,4.40
2023-03-06T18:20:52.259Z,3.83
2023-03-06T18:23:20.154Z,4.40
2023-03-06T18:25:47.706Z,4.55
2023-03-06T18:28:15.214Z,4.69
2023-03-06T18:30:44.049Z,4.96
2023-03-06T18:33:11.565Z,5.16
2023-03-06T18:35:39.079Z,5.07
2023-03-06T18:38:06.575Z,5.13
2023-03-06T18:40:34.036Z,4.88
2023-03-06T18:43:01.496Z,4.56
2023-03-06T18:45:29.021Z,4.89
2023-03-06T18:47:57.857Z,5.23
2023-03-06T18:50:25.378Z,5.44
2023-03-06T18:52:52.837Z,5.05
2023-03-06T18:55:20.313Z,5.27
2023-03-06T18:57:47.788Z,5.14
2023-03-06T19:00:16.669Z,5.08
2023-03-06T19:02:44.536Z,5.16
2023-03-06T19:05:13.360Z,5.41
2023-03-06T19:07:40.870Z,5.22
2023-03-06T19:10:09.266Z,5.59
2023-03-06T19:12:36.764Z,5.42
2023-03-06T19:15:04.968Z,5.29
2023-03-06T19:17:32.516Z,5.24
2023-03-06T19:19:59.990Z,5.32
2023-03-06T19:22:28.819Z,5.51
2023-03-06T19:24:56.274Z,5.42
2023-03-06T19:27:23.739Z,5.47
2023-03-06T19:29:51.201Z,5.51
2023-03-06T19:32:18.806Z,5.43
2023-03-06T19:34:49.322Z,5.60
2023-03-06T19:37:16.811Z,5.48
2023-03-06T19:39:45.642Z,5.48
2023-03-06T19:42:13.976Z,5.72
2023-03-06T19:44:41.517Z,5.63
2023-03-06T19:47:09.054Z,5.51
2023-03-06T19:49:38.063Z,5.70
2023-03-06T19:52:06.629Z,5.54
2023-03-06T19:54:34.116Z,5.65
2023-03-06T19:57:03.411Z,5.58
2023-03-06T19:59:30.961Z,5.53
2023-03-06T20:01:58.448Z,5.58
2023-03-06T20:04:26.158Z,5.74
2023-03-06T20:06:53.697Z,5.71
2023-03-06T20:09:21.195Z,5.86
2023-03-06T20:11:48.660Z,6.00
2023-03-06T20:14:18.220Z,6.00
2023-03-06T20:16:45.790Z,5.99
2023-03-06T20:19:13.296Z,6.08
2023-03-06T20:21:40.805Z,6.10
2023-03-06T20:24:16.447Z,5.67
2023-03-06T20:26:44.680Z,5.75
2023-03-06T20:29:12.930Z,5.16
2023-03-06T20:31:41.834Z,4.89
2023-03-06T20:34:09.403Z,4.92
2023-03-06T20:36:40.357Z,4.66
2023-03-06T20:39:09.909Z,5.14
2023-03-06T20:41:37.484Z,4.35
2023-03-06T20:44:07.729Z,4.46
2023-03-06T20:46:35.848Z,4.25
2023-03-06T20:49:05.073Z,4.44
2023-03-06T20:51:36.035Z,3.78
2023-03-06T20:54:04.029Z,3.86
2023-03-06T20:56:33.456Z,3.78
2023-03-06T20:59:01.022Z,3.79
2023-03-06T21:01:31.115Z,3.93
2023-03-06T21:03:59.529Z,4.24
2023-03-06T21:06:29.728Z,4.30
2023-03-06T21:08:58.218Z,4.70
2023-03-06T21:11:25.913Z,4.58
2023-03-06T21:13:53.750Z,4.56
2023-03-06T21:16:24.016Z,4.29
2023-03-06T21:18:52.049Z,3.87
2023-03-06T21:21:21.998Z,3.72
2023-03-06T21:23:51.727Z,3.56
2023-03-06T21:26:21.134Z,3.50
2023-03-06T21:28:48.957Z,3.36
2023-03-06T21:31:18.116Z,3.82
2023-03-06T21:33:46.417Z,3.98
2023-03-06T21:36:14.460Z,4.32
2023-03-06T21:38:41.984Z,4.62
2023-03-06T21:41:13.811Z,4.05
2023-03-06T21:43:41.802Z,4.14
2023-03-06T21:46:09.797Z,4.35
2023-03-06T21:48:37.610Z,3.98
2023-03-06T21:51:07.556Z,3.63
2023-03-06T21:53:35.661Z,3.44
2023-03-06T21:56:03.849Z,3.40
2023-03-06T21:58:32.994Z,3.46
2023-03-06T22:01:00.784Z,3.81
2023-03-06T22:03:29.457Z,3.47
2023-03-06T22:05:56.955Z,3.33
2023-03-06T22:08:25.143Z,3.30
2023-03-06T22:10:52.637Z,3.29
2023-03-06T22:13:20.657Z,3.25
2023-03-06T22:15:53.633Z,3.14
2023-03-06T22:18:21.089Z,3.64
2023-03-06T22:20:48.546Z,3.41
2023-03-06T22:23:16.014Z,3.38
2023-03-06T22:25:43.597Z,3.77
2023-03-06T22:28:12.980Z,3.25
2023-03-06T22:30:40.450Z,3.24
2023-03-06T22:33:09.308Z,2.98
2023-03-06T22:35:36.808Z,3.08
2023-03-06T22:38:04.581Z,3.18
2023-03-06T22:40:32.108Z,3.54
2023-03-06T22:42:59.570Z,3.56
2023-03-06T22:45:27.134Z,3.48
2023-03-06T22:48:02.320Z,3.27
2023-03-06T22:50:37.996Z,3.56
2023-03-06T22:53:05.441Z,3.25
2023-03-06T22:55:35.484Z,3.53
2023-03-06T22:58:03.079Z,3.60
2023-03-06T23:00:30.533Z,3.35
2023-03-06T23:02:58.016Z,3.16
2023-03-06T23:05:27.880Z,3.09
2023-03-06T23:07:57.947Z,2.83
2023-03-06T23:10:25.529Z,2.87
2023-03-06T23:12:53.017Z,2.67
2023-03-06T23:15:20.494Z,3.06
2023-03-06T23:17:48.083Z,3.14
2023-03-06T23:20:15.689Z,3.25
2023-03-06T23:22:43.150Z,3.20
2023-03-06T23:25:12.101Z,3.53
2023-03-06T23:27:39.711Z,3.43
2023-03-06T23:30:09.351Z,3.29
2023-03-06T23:32:36.916Z,3.34
2023-03-06T23:35:04.731Z,3.22
2023-03-06T23:37:32.276Z,3.12
2023-03-06T23:39:59.733Z,3.14
2023-03-06T23:42:28.540Z,3.03
2023-03-06T23:44:56.002Z,3.21
2023-03-06T23:47:23.480Z,3.25
2023-03-06T23:49:50.962Z,3.10
2023-03-06T23:52:18.682Z,2.77
2023-03-06T23:54:49.609Z,3.09
2023-03-06T23:57:17.530Z,3.40
2023-03-06T23:59:46.472Z,3.27
